createdAt,value
2019-06-07T00:00:59.017Z,9.25
2019-06-07T00:06:02.424Z,10.23
2019-06-07T00:11:07.646Z,10.98
2019-06-07T00:16:14.177Z,11.20
2019-06-07T00:21:17.843Z,12.75
2019-06-07T00:26:21.886Z,11.95
2019-06-07T00:31:25.294Z,12.07
2019-06-07T00:36:28.732Z,12.03
2019-06-07T00:41:32.096Z,10.03
2019-06-07T00:46:35.496Z,10.58
2019-06-07T00:51:49.922Z,10.05
2019-06-07T00:56:44.300Z,10.63
2019-06-07T01:01:48.041Z,10.85
2019-06-07T01:06:51.466Z,11.25
2019-06-07T01:11:55.018Z,8.55
2019-06-07T01:17:22.204Z,9.70
2019-06-07T01:22:03.847Z,8.73
2019-06-07T01:27:07.566Z,10.63
2019-06-07T01:32:11.017Z,13.30
2019-06-07T01:37:14.440Z,10.10
2019-06-07T01:42:19.906Z,8.15
2019-06-07T01:47:25.594Z,7.95
2019-06-07T01:52:29.744Z,7.58
2019-06-07T01:57:45.454Z,7.35
2019-06-07T02:02:38.460Z,8.25
2019-06-07T02:07:41.809Z,6.20
2019-06-07T02:12:45.200Z,8.48
2019-06-07T02:17:48.598Z,5.78
2019-06-07T02:22:51.988Z,6.90
2019-06-07T02:28:25.777Z,6.87
2019-06-07T02:33:01.241Z,5.70
2019-06-07T02:38:04.990Z,7.15
2019-06-07T02:43:08.436Z,7.60
2019-06-07T02:48:11.865Z,7.67
2019-06-07T02:53:15.267Z,7.45
2019-06-07T02:58:18.650Z,8.90
2019-06-07T03:03:22.575Z,7.95
2019-06-07T03:08:30.829Z,7.45
2019-06-07T03:13:37.511Z,7.80
2019-06-07T03:18:50.287Z,7.90
2019-06-07T03:23:57.201Z,7.55
2019-06-07T03:29:00.878Z,8.43
2019-06-07T03:34:04.346Z,8.65
2019-06-07T03:39:07.811Z,9.58
2019-06-07T03:44:11.208Z,8.15
2019-06-07T03:49:14.913Z,7.72
2019-06-07T03:54:18.314Z,8.23
2019-06-07T03:59:21.707Z,9.13
2019-06-07T04:04:25.353Z,8.98
2019-06-07T04:09:31.497Z,10.20
2019-06-07T04:14:35.194Z,10.03
2019-06-07T04:19:43.137Z,10.58
2019-06-07T04:24:44.145Z,10.82
2019-06-07T04:30:06.359Z,10.50
2019-06-07T04:34:52.668Z,9.80
2019-06-07T04:39:56.840Z,11.05
2019-06-07T04:45:00.627Z,11.08
2019-06-07T04:50:05.455Z,11.43
2019-06-07T04:55:09.232Z,11.78
2019-06-07T05:00:46.941Z,11.22
2019-06-07T05:05:18.013Z,12.13
2019-06-07T05:10:21.409Z,11.57
2019-06-07T05:15:24.885Z,10.63
2019-06-07T05:20:28.291Z,11.48
2019-06-07T05:25:33.544Z,11.63
2019-06-07T05:35:44.535Z,11.03
2019-06-07T05:40:48.959Z,11.00
2019-06-07T05:45:52.756Z,11.03
2019-06-07T05:50:57.464Z,10.95
2019-06-07T05:56:01.293Z,10.68
2019-06-07T06:01:41.598Z,9.80
2019-06-07T06:06:09.876Z,9.93
2019-06-07T06:11:13.269Z,9.08
2019-06-07T06:16:16.673Z,7.87
2019-06-07T06:21:20.562Z,8.65
2019-06-07T06:26:24.131Z,8.70
2019-06-07T06:31:27.531Z,8.50
2019-06-07T06:36:30.926Z,8.43
2019-06-07T06:41:48.458Z,8.20
2019-06-07T06:46:44.783Z,8.35
2019-06-07T06:51:50.077Z,7.85
2019-06-07T06:56:52.687Z,7.35
2019-06-07T07:01:55.663Z,6.17
2019-06-07T07:06:59.292Z,5.90
2019-06-07T07:12:11.964Z,5.70
2019-06-07T07:17:08.131Z,5.67
2019-06-07T07:22:11.755Z,5.58
2019-06-07T07:27:15.509Z,5.53
2019-06-07T07:32:19.244Z,4.65
2019-06-07T07:37:22.651Z,5.55
2019-06-07T07:42:26.029Z,5.05
2019-06-07T07:47:29.424Z,5.10
2019-06-07T07:52:33.092Z,5.03
2019-06-07T07:57:36.492Z,4.20
2019-06-07T08:02:39.895Z,3.92
2019-06-07T08:07:43.286Z,4.17
2019-06-07T08:13:11.836Z,5.03
2019-06-07T08:17:58.024Z,4.75
2019-06-07T08:22:59.776Z,4.40
2019-06-07T08:28:02.451Z,4.60
2019-06-07T08:33:25.503Z,4.58
2019-06-07T08:38:25.883Z,4.55
2019-06-07T08:43:20.775Z,4.10
2019-06-07T08:48:28.014Z,4.10
2019-06-07T08:53:26.518Z,3.67
2019-06-07T08:58:29.918Z,3.92
2019-06-07T09:03:33.316Z,3.30
2019-06-07T09:08:36.705Z,4.03
2019-06-07T09:13:40.114Z,3.30
2019-06-07T09:18:45.131Z,4.28
2019-06-07T09:23:48.690Z,4.90
2019-06-07T09:28:52.954Z,3.70
2019-06-07T09:33:59.808Z,4.42
2019-06-07T09:39:07.414Z,3.95
2019-06-07T09:44:21.092Z,4.87
2019-06-07T09:49:28.573Z,3.55
2019-06-07T09:59:23.787Z,4.30
2019-06-07T10:04:31.316Z,4.15
2019-06-07T10:14:39.038Z,3.27
2019-06-07T10:19:42.428Z,3.72
2019-06-07T10:24:45.822Z,4.22
2019-06-07T10:29:49.217Z,4.00
2019-06-07T10:34:52.692Z,3.98
2019-06-07T10:39:56.084Z,3.55
2019-06-07T10:45:02.065Z,3.25
2019-06-07T10:50:06.496Z,3.52
2019-06-07T10:55:10.626Z,3.25
2019-06-07T11:00:16.488Z,3.52
2019-06-07T11:05:20.223Z,2.80
2019-06-07T11:10:23.928Z,3.00
2019-06-07T11:15:27.321Z,3.33
2019-06-07T11:20:30.791Z,3.30
2019-06-07T11:25:34.186Z,3.50
2019-06-07T11:30:37.894Z,3.22
2019-06-07T11:35:41.289Z,2.70
2019-06-07T11:40:44.672Z,3.10
2019-06-07T11:45:48.064Z,3.10
2019-06-07T11:50:51.482Z,2.90
2019-06-07T11:55:54.897Z,2.77
2019-06-07T12:00:58.404Z,2.67
2019-06-07T12:06:01.900Z,2.85
2019-06-07T12:11:05.289Z,2.98
2019-06-07T12:16:09.126Z,3.10
2019-06-07T12:21:13.654Z,2.92
2019-06-07T12:26:18.477Z,3.05
2019-06-07T12:31:22.001Z,2.80
2019-06-07T12:36:25.392Z,2.77
2019-06-07T12:41:28.849Z,3.02
2019-06-07T12:46:32.196Z,2.60
2019-06-07T12:51:35.594Z,3.05
2019-06-07T12:56:38.993Z,2.72
2019-06-07T13:01:42.726Z,3.00
2019-06-07T13:06:46.121Z,2.77
2019-06-07T13:11:49.518Z,2.80
2019-06-07T13:16:53.173Z,2.77
2019-06-07T13:21:56.898Z,3.00
2019-06-07T13:27:00.624Z,2.98
2019-06-07T13:32:04.264Z,3.20
2019-06-07T13:37:07.958Z,3.00
2019-06-07T13:42:11.353Z,2.92
2019-06-07T13:47:14.754Z,2.80
2019-06-07T13:52:18.232Z,2.83
2019-06-07T13:57:22.223Z,2.90
2019-06-07T14:02:27.472Z,2.72
2019-06-07T14:07:31.217Z,2.90
2019-06-07T14:12:34.609Z,2.87
2019-06-07T14:17:38.006Z,2.98
2019-06-07T14:22:41.484Z,2.70
2019-06-07T14:27:45.175Z,2.70
2019-06-07T14:32:48.896Z,3.10
2019-06-07T14:37:52.365Z,3.30
2019-06-07T14:42:55.705Z,2.85
2019-06-07T14:47:59.103Z,2.87
2019-06-07T14:53:02.493Z,2.77
2019-06-07T14:58:05.890Z,3.30
2019-06-07T15:03:09.419Z,2.70
2019-06-07T15:08:12.818Z,2.60
2019-06-07T15:13:16.208Z,3.22
2019-06-07T15:18:19.668Z,2.50
2019-06-07T15:23:23.311Z,3.20
2019-06-07T15:28:27.656Z,2.55
2019-06-07T15:33:31.832Z,2.62
2019-06-07T15:38:37.059Z,2.85
2019-06-07T15:43:40.896Z,2.90
2019-06-07T15:48:44.617Z,3.00
2019-06-07T15:53:48.021Z,3.02
2019-06-07T15:58:51.472Z,3.35
2019-06-07T16:03:54.868Z,2.55
2019-06-07T16:08:58.263Z,2.77
2019-06-07T16:14:01.653Z,2.87
2019-06-07T16:19:05.138Z,2.95
2019-06-07T16:24:08.541Z,3.35
2019-06-07T16:29:11.965Z,3.20
2019-06-07T16:34:15.357Z,3.12
2019-06-07T16:39:18.757Z,2.80
2019-06-07T16:44:22.155Z,3.05
2019-06-07T16:49:25.547Z,3.20
2019-06-07T16:54:29.207Z,3.20
2019-06-07T16:59:32.652Z,3.30
2019-06-07T17:04:37.380Z,3.40
2019-06-07T17:09:42.134Z,3.20
2019-06-07T17:14:46.629Z,3.27
2019-06-07T17:19:50.026Z,3.10
2019-06-07T17:24:53.420Z,3.20
2019-06-07T17:29:57.106Z,3.27
2019-06-07T17:35:00.734Z,3.00
2019-06-07T17:40:06.117Z,3.10
2019-06-07T17:45:10.350Z,2.83
2019-06-07T17:50:14.404Z,2.92
2019-06-07T17:55:19.042Z,3.05
2019-06-07T18:00:33.329Z,3.00
2019-06-07T18:05:28.634Z,3.20
2019-06-07T18:10:37.881Z,3.10
2019-06-07T18:15:52.951Z,3.20
2019-06-07T18:25:57.274Z,2.85
2019-06-07T18:31:00.905Z,3.45
2019-06-07T18:36:05.030Z,3.37
2019-06-07T18:41:08.426Z,3.30
2019-06-07T18:46:11.823Z,3.60
2019-06-07T18:51:15.411Z,3.40
2019-06-07T18:56:19.024Z,3.90
2019-06-07T19:01:22.421Z,3.98
2019-06-07T19:06:25.845Z,3.98
2019-06-07T19:11:29.278Z,4.55
2019-06-07T19:16:32.679Z,4.50
2019-06-07T19:21:36.089Z,4.17
2019-06-07T19:26:39.486Z,4.05
2019-06-07T19:31:42.884Z,4.58
2019-06-07T19:36:49.043Z,4.47
2019-06-07T19:41:54.027Z,4.60
2019-06-07T19:46:58.491Z,4.65
2019-06-07T19:52:03.153Z,5.40
2019-06-07T19:57:06.945Z,5.03
2019-06-07T20:02:10.398Z,5.22
2019-06-07T20:07:13.790Z,5.20
2019-06-07T20:12:17.189Z,5.95
2019-06-07T20:17:20.751Z,5.80
2019-06-07T20:22:24.147Z,5.17
2019-06-07T20:27:27.790Z,5.50
2019-06-07T20:32:31.202Z,5.53
2019-06-07T20:37:34.859Z,6.20
2019-06-07T20:42:38.544Z,5.72
2019-06-07T20:47:41.943Z,6.10
2019-06-07T20:52:45.337Z,5.92
2019-06-07T20:57:48.734Z,5.50
2019-06-07T21:02:52.139Z,5.17
2019-06-07T21:07:55.857Z,3.62
2019-06-07T21:12:59.736Z,2.87
2019-06-07T21:18:04.912Z,2.50
2019-06-07T21:23:09.020Z,2.30
2019-06-07T21:28:12.798Z,2.58
2019-06-07T21:33:16.191Z,1.90
2019-06-07T21:38:19.827Z,1.85
2019-06-07T21:43:23.231Z,1.60
2019-06-07T21:48:26.684Z,1.80
2019-06-07T21:53:30.084Z,1.87
2019-06-07T21:58:33.752Z,1.60
2019-06-07T22:03:37.146Z,1.95
2019-06-07T22:08:41.642Z,1.27
2019-06-07T22:13:45.402Z,1.75
2019-06-07T22:18:48.774Z,1.40
2019-06-07T22:23:52.498Z,1.30
2019-06-07T22:28:56.358Z,0.90
2019-06-07T22:33:59.751Z,0.80
2019-06-07T22:39:03.618Z,0.93
2019-06-07T22:44:07.163Z,0.80
2019-06-07T22:49:11.375Z,0.88
2019-06-07T22:54:16.070Z,0.90
2019-06-07T22:59:20.608Z,1.10
2019-06-07T23:04:24.079Z,0.80
2019-06-07T23:09:27.485Z,1.05
2019-06-07T23:14:30.978Z,1.25
2019-06-07T23:19:34.608Z,0.80
2019-06-07T23:24:38.005Z,0.82
2019-06-07T23:29:41.400Z,0.80
2019-06-07T23:34:44.826Z,0.90
2019-06-07T23:39:48.523Z,1.10
2019-06-07T23:44:52.244Z,0.85
2019-06-07T23:49:55.641Z,1.12
2019-06-07T23:54:59.033Z,1.10
